Albion, IA

6:39 PM CST on November 27, 2014 (GMT -0600)
Marshalltown Municipal | Change Station
CLOSE
Current Station
Airport
Location: Marshalltown,
Elevation: 971 ft
Nearby Weather Stations

Elev 971 ft 42.11 °N, 92.92 °W | Updated 46 minutes ago

Partly Cloudy
Partly Cloudy
4 °F
Feels Like 4 °F
N
0
Wind Variable Wind from North

Today
High -- | Low -- °F
--% Chance of Precip.
Yesterday
High -- | Low -- °F
Precip. -- in
7:16 AM 4:42 PM
Waxing Crescent, 34% visible
Pressure 30.48 in
Visibility 10.0 miles
Clouds Clear
Dew Point -1 °F
Humidity 80%
Rainfall 0.00 in
Snow Depth Not available.
UV 0 out of 12
Pollen .10 out of 12
Air Quality Not available.
Flu Activity Not available.
METAR KMIW 272353Z AUTO 00000KT 10SM CLR M16/M18 A3040 RMK AO2 SLP320 T11561183 11139 21161 58014

More Conditions Fewer Conditions

Pressure 30.48 in
Visibility 10.0 miles
Clouds Clear
Dew Point -1 °F
Humidity 80%
Rainfall 0.00 in
Snow Depth Not available.
UV 0 out of 12
Pollen .10 out of 12
Air Quality Not available.
Flu Activity Not available.
METAR KMIW 272353Z AUTO 00000KT 10SM CLR M16/M18 A3040 RMK AO2 SLP320 T11561183 11139 21161 58014

More Conditions Fewer Conditions

10-Day Weather Forecast

Almanac

Astronomy

Nov. 27, 2014 Rise Set
Actual Time
Civil Twilight
Nautical Twilight
Astronomical Twilight
Moon
Length of Visible Light
Length of Day
Tomorrow will be .
, % of the Moon is Illuminated

Today's Extremes

State Highs State Lows

Community

WunderPhotos

Upload Photos

1,774,146 photos uploaded!

WunderBlogs® & News

Nearby

Air Quality

  Air Quality AQ Index Pollutant
Not available.

Snow Depth

Station Depth Elevation

Earthquake Activity

City Distance Mag. Time & Date
Minimum magnitude displayed is 2.5.

Coastal Water Temperatures

Place Temperature

Nearby Weather Stations